Time;durP1;ratioP1;P1;durP2;ratioP2;P2;SDS_P1;SDS_P2;PMS_P1;PMS_P2;Temp;Humidity;BMP_temperature;BMP_pressure;BME280_temperature;BME280_humidity;BME280_pressure;Samples;Min_cycle;Max_cycle;Signal;HPM_P1;HPM_P2
2021/07/30 04:37:24;;;;;;;9.63;3.75;;;;;;;16.70;64.42;99674.63;4987028;28;106341;-62
2021/07/30 04:39:50;;;;;;;6.70;3.65;;;;;;;16.85;64.65;99684.19;4987230;28;106150;-63
2021/07/30 04:42:15;;;;;;;6.03;3.80;;;;;;;17.01;64.79;99689.00;4984824;28;111488;-63
2021/07/30 04:44:40;;;;;;;7.80;3.63;;;;;;;17.17;64.86;99684.88;4984846;28;105908;-65
2021/07/30 04:47:06;;;;;;;7.03;3.90;;;;;;;17.35;64.50;99688.59;4984810;28;112725;-65
2021/07/30 04:49:31;;;;;;;9.13;3.97;;;;;;;17.50;64.42;99686.31;4985704;28;105862;-65
2021/07/30 04:51:56;;;;;;;6.38;3.45;;;;;;;17.65;64.19;99685.09;4985637;28;105926;-65
2021/07/30 04:54:22;;;;;;;6.32;3.95;;;;;;;17.75;63.77;99686.16;4984883;28;107967;-65
2021/07/30 04:56:47;;;;;;;7.97;3.85;;;;;;;17.87;63.35;99683.50;4985380;28;106081;-65
2021/07/30 04:59:12;;;;;;;8.82;3.83;;;;;;;17.98;63.11;99681.09;4986223;28;105932;-65
2021/07/30 05:01:41;;;;;;;9.15;3.47;;;;;;;18.07;62.96;99682.38;4985428;28;106353;-65
2021/07/30 05:04:08;;;;;;;6.77;3.80;;;;;;;18.23;62.76;99683.59;4984992;28;105749;-65
2021/07/30 05:06:34;;;;;;;8.63;3.63;;;;;;;18.34;62.40;99677.38;4984931;28;106088;-65
2021/07/30 05:08:59;;;;;;;5.70;3.15;;;;;;;18.48;62.23;99686.06;4985866;28;105823;-65
2021/07/30 05:11:24;;;;;;;6.68;3.83;;;;;;;18.57;61.73;99681.13;4983710;28;106747;-65
2021/07/30 05:13:50;;;;;;;12.48;3.78;;;;;;;18.66;61.15;99681.56;4984553;28;118216;-65
2021/07/30 05:16:15;;;;;;;6.40;3.42;;;;;;;18.78;61.25;99683.22;4978428;28;106525;-64
2021/07/30 05:18:41;;;;;;;5.40;3.17;;;;;;;18.87;60.98;99685.56;4966178;28;106335;-65
2021/07/30 05:21:08;;;;;;;10.00;3.20;;;;;;;18.93;60.61;99673.81;4965075;28;106192;-65
2021/07/30 05:23:33;;;;;;;8.32;3.67;;;;;;;18.99;60.21;99682.88;4964614;28;105971;-66
2021/07/30 05:26:00;;;;;;;6.18;3.42;;;;;;;19.06;60.19;99683.56;4964524;28;106145;-64
2021/07/30 05:28:25;;;;;;;5.05;3.28;;;;;;;19.14;59.94;99688.59;4965328;28;105806;-65
2021/07/30 05:30:51;;;;;;;5.57;3.30;;;;;;;19.19;59.32;99682.44;4963997;28;106159;-66
2021/07/30 05:33:16;;;;;;;5.97;3.42;;;;;;;19.21;59.24;99686.56;4964593;28;105951;-66
2021/07/30 05:35:42;;;;;;;6.05;3.45;;;;;;;19.28;59.08;99687.22;4963768;28;106114;-65
2021/07/30 05:38:07;;;;;;;9.82;3.38;;;;;;;19.31;58.88;99691.34;4965655;28;105810;-66
2021/07/30 05:40:33;;;;;;;7.53;3.30;;;;;;;19.32;58.48;99684.06;4964646;28;106357;-65
2021/07/30 05:42:58;;;;;;;9.68;3.60;;;;;;;19.35;58.27;99680.88;4964787;28;106042;-66
2021/07/30 05:45:23;;;;;;;10.57;3.95;;;;;;;19.37;58.32;99676.03;4964499;28;108045;-65
2021/07/30 05:47:49;;;;;;;5.82;3.50;;;;;;;19.47;58.14;99672.75;4957709;28;105704;-64
2021/07/30 05:50:15;;;;;;;7.25;3.20;;;;;;;19.64;58.15;99672.75;4951618;28;106272;-65
2021/07/30 05:52:40;;;;;;;7.55;3.20;;;;;;;19.87;57.79;99680.75;4951428;28;106626;-65
2021/07/30 05:55:06;;;;;;;7.78;3.25;;;;;;;20.10;57.70;99682.50;4950950;28;106023;-65
2021/07/30 05:57:33;;;;;;;5.68;2.97;;;;;;;20.29;56.74;99676.84;4951936;28;106081;-65
2021/07/30 06:00:05;;;;;;;11.65;3.38;;;;;;;20.41;56.16;99677.56;4951490;28;106402;-66
2021/07/30 06:02:30;;;;;;;7.72;2.95;;;;;;;20.46;55.39;99680.38;4951077;28;106168;-65
2021/07/30 06:04:56;;;;;;;6.47;3.30;;;;;;;20.49;54.91;99679.06;4950763;28;106238;-65
2021/07/30 06:07:22;;;;;;;8.43;3.90;;;;;;;20.58;54.69;99677.53;4951894;28;106257;-65
2021/07/30 06:09:47;;;;;;;4.60;3.00;;;;;;;20.71;54.62;99684.53;4950925;28;113317;-64
2021/07/30 06:12:12;;;;;;;7.28;2.90;;;;;;;20.82;53.50;99684.66;4950956;28;105931;-64
2021/07/30 06:14:38;;;;;;;8.48;3.25;;;;;;;20.82;52.87;99671.94;4949734;28;106217;-64
2021/07/30 06:17:03;;;;;;;7.13;2.75;;;;;;;20.91;52.53;99681.28;4951400;28;106156;-64
2021/07/30 06:19:29;;;;;;;6.07;2.40;;;;;;;21.02;52.28;99675.97;4951489;28;106382;-64
2021/07/30 06:21:54;;;;;;;9.10;2.70;;;;;;;21.08;51.60;99672.28;4950984;28;107089;-64
2021/07/30 06:24:20;;;;;;;5.50;2.60;;;;;;;21.12;50.91;99665.28;4951029;28;106201;-64
2021/07/30 06:26:45;;;;;;;6.00;2.60;;;;;;;21.20;50.57;99670.25;4951633;28;105879;-64
2021/07/30 06:29:10;;;;;;;8.93;2.55;;;;;;;21.32;50.43;99669.28;4951335;28;106181;-64
2021/07/30 06:31:36;;;;;;;6.00;3.22;;;;;;;21.45;49.86;99663.47;4950863;28;105934;-65
2021/07/30 06:34:01;;;;;;;8.48;2.50;;;;;;;21.57;49.55;99672.28;4951231;28;106226;-66
2021/07/30 06:36:26;;;;;;;4.30;2.60;;;;;;;21.78;49.61;99665.16;4950764;28;106195;-66
2021/07/30 06:38:52;;;;;;;8.50;2.78;;;;;;;22.01;49.04;99665.06;4950623;28;106342;-65
2021/07/30 06:41:18;;;;;;;5.43;2.50;;;;;;;22.11;48.27;99667.88;4949378;28;106695;-65
2021/07/30 06:43:43;;;;;;;9.50;2.83;;;;;;;22.19;47.82;99672.03;4950147;28;106281;-63
2021/07/30 06:46:09;;;;;;;7.57;2.50;;;;;;;22.31;47.61;99669.94;4950862;28;106182;-64
2021/07/30 06:48:34;;;;;;;7.93;2.80;;;;;;;22.42;47.29;99665.44;4950480;28;106126;-64
2021/07/30 06:50:59;;;;;;;3.92;2.25;;;;;;;22.63;47.11;99672.59;4950135;28;106050;-65
2021/07/30 06:53:25;;;;;;;6.10;2.42;;;;;;;22.83;46.58;99671.06;4939924;28;105978;-64
2021/07/30 06:55:50;;;;;;;6.93;2.25;;;;;;;23.07;45.99;99665.19;4949573;28;106265;-65
2021/07/30 06:58:15;;;;;;;4.30;2.47;;;;;;;23.27;45.55;99665.28;4949558;28;106181;-65
2021/07/30 07:00:41;;;;;;;4.72;2.08;;;;;;;23.49;45.22;99661.53;4939435;28;106304;-64
2021/07/30 07:03:06;;;;;;;8.90;3.83;;;;;;;23.66;44.62;99666.72;4938898;28;106371;-64
2021/07/30 07:05:33;;;;;;;3.85;2.20;;;;;;;23.83;44.14;99666.47;4931883;28;106013;-65
2021/07/30 07:07:59;;;;;;;6.20;2.38;;;;;;;23.97;43.50;99667.59;4930424;28;106152;-65
2021/07/30 07:10:24;;;;;;;6.43;2.63;;;;;;;24.17;43.27;99669.47;4949327;28;106401;-67
2021/07/30 07:12:49;;;;;;;6.60;2.63;;;;;;;24.36;42.49;99673.53;4950044;28;105865;-67
2021/07/30 07:15:15;;;;;;;5.72;2.10;;;;;;;24.39;41.57;99673.00;4951020;28;106060;-66
2021/07/30 07:17:40;;;;;;;4.65;2.10;;;;;;;24.26;40.84;99667.03;4950059;28;106172;-67
2021/07/30 07:20:06;;;;;;;5.90;2.10;;;;;;;24.29;40.77;99669.22;4950005;28;109217;-66
2021/07/30 07:22:32;;;;;;;6.00;2.15;;;;;;;24.49;40.64;99667.53;4938028;28;105992;-66
2021/07/30 07:24:57;;;;;;;5.43;1.83;;;;;;;24.67;40.25;99658.81;4931331;28;106561;-66
2021/07/30 07:27:22;;;;;;;2.85;1.92;;;;;;;24.74;39.84;99663.13;4930804;28;106197;-67
2021/07/30 07:29:48;;;;;;;3.90;2.08;;;;;;;24.69;39.50;99654.97;4930384;28;105879;-67
2021/07/30 07:32:13;;;;;;;3.58;2.08;;;;;;;24.69;39.29;99655.81;4930618;28;106440;-66
2021/07/30 07:34:39;;;;;;;4.13;2.00;;;;;;;24.86;39.40;99651.94;4931097;28;106464;-66
2021/07/30 07:37:04;;;;;;;6.25;2.50;;;;;;;25.11;38.89;99645.53;4929782;28;106297;-66
2021/07/30 07:39:30;;;;;;;6.28;2.42;;;;;;;25.36;38.40;99643.81;4929665;28;106271;-67
2021/07/30 07:41:57;;;;;;;7.53;2.60;;;;;;;25.55;37.96;99638.50;4946711;28;106284;-65
2021/07/30 07:44:22;;;;;;;3.60;1.90;;;;;;;25.77;37.64;99635.34;4950001;28;105987;-66
2021/07/30 07:46:48;;;;;;;4.03;2.10;;;;;;;25.99;37.07;99638.41;4949988;28;106212;-63
2021/07/30 07:49:14;;;;;;;4.25;1.98;;;;;;;26.07;36.37;99637.03;4949488;28;105900;-67
2021/07/30 07:51:39;;;;;;;3.47;1.70;;;;;;;25.89;36.33;99640.41;4949436;28;105896;-65
2021/07/30 07:54:04;;;;;;;5.32;3.15;;;;;;;25.91;36.38;99639.03;4950126;28;105923;-64
2021/07/30 07:56:30;;;;;;;5.85;1.95;;;;;;;25.78;35.48;99642.41;4948073;28;106315;-65
2021/07/30 07:58:55;;;;;;;6.32;2.53;;;;;;;25.45;35.77;99640.22;4949619;28;106411;-67
2021/07/30 08:01:21;;;;;;;4.00;2.00;;;;;;;25.36;35.66;99636.44;4949140;28;106232;-66
2021/07/30 08:03:46;;;;;;;5.07;2.15;;;;;;;25.48;35.73;99638.84;4950339;28;106060;-66
2021/07/30 08:06:21;;;;;;;3.55;1.88;;;;;;;25.62;35.63;99636.28;4949746;28;106477;-64
2021/07/30 08:08:47;;;;;;;4.68;1.95;;;;;;;25.92;35.63;99637.94;4949348;28;107048;-65
2021/07/30 08:11:14;;;;;;;3.40;1.80;;;;;;;26.20;35.15;99635.53;4948599;28;105803;-65
2021/07/30 08:13:39;;;;;;;3.78;1.92;;;;;;;26.39;34.82;99626.63;4950258;28;106030;-65
2021/07/30 08:16:06;;;;;;;5.10;1.92;;;;;;;26.35;34.20;99631.81;4949387;28;106118;-65
2021/07/30 08:18:31;;;;;;;4.07;2.05;;;;;;;26.26;34.44;99628.09;4949263;28;106046;-65
2021/07/30 08:20:57;;;;;;;6.95;2.25;;;;;;;26.38;34.16;99627.72;4949133;28;106159;-65
2021/07/30 08:23:22;;;;;;;3.60;1.95;;;;;;;26.09;33.95;99626.63;4950089;28;106093;-64
2021/07/30 08:25:47;;;;;;;3.17;1.80;;;;;;;26.02;34.48;99626.94;4949471;28;106332;-65
2021/07/30 08:28:13;;;;;;;7.40;2.40;;;;;;;26.18;34.24;99613.19;4948811;28;106186;-65
2021/07/30 08:30:42;;;;;;;3.05;2.08;;;;;;;26.39;33.58;99630.16;4928039;28;106178;-66
2021/07/30 08:33:07;;;;;;;5.05;2.78;;;;;;;26.49;33.98;99626.50;4928723;28;106669;-65
2021/07/30 08:35:34;;;;;;;4.53;2.15;;;;;;;26.72;33.89;99615.88;4927614;28;106224;-65
2021/07/30 08:37:59;;;;;;;4.82;2.08;;;;;;;27.04;33.60;99617.94;4927784;28;105931;-65
2021/07/30 08:40:28;;;;;;;4.15;2.25;;;;;;;27.21;32.54;99620.16;4932221;28;105980;-65
2021/07/30 08:42:53;;;;;;;5.10;2.30;;;;;;;27.32;32.49;99613.41;4947384;28;106415;-65
2021/07/30 08:45:19;;;;;;;3.65;1.80;;;;;;;27.51;32.47;99609.91;4947200;28;106241;-65
2021/07/30 08:47:44;;;;;;;4.32;2.08;;;;;;;27.78;32.25;99614.66;4946751;28;112602;-65
2021/07/30 08:50:10;;;;;;;4.63;2.10;;;;;;;28.03;31.82;99613.44;4946693;28;106460;-65
2021/07/30 08:52:40;;;;;;;3.67;2.00;;;;;;;28.23;31.27;99603.22;4947665;28;106045;-66
2021/07/30 08:55:06;;;;;;;5.35;2.33;;;;;;;28.30;30.57;99620.06;4946871;28;106086;-66
2021/07/30 08:57:31;;;;;;;4.22;1.90;;;;;;;28.47;30.53;99608.53;4946827;28;106015;-66
2021/07/30 09:00:10;;;;;;;4.15;1.70;;;;;;;28.57;30.29;99615.72;4946776;28;106140;-64
2021/07/30 09:02:35;;;;;;;3.88;1.77;;;;;;;28.44;29.06;99606.38;4947673;28;106373;-65
2021/07/30 09:05:33;;;;;;;9.88;2.10;;;;;;;28.07;29.80;99599.16;4946954;28;106201;-65
2021/07/30 09:08:00;;;;;;;3.83;1.73;;;;;;;27.96;29.69;99598.50;4946654;28;107069;-65
2021/07/30 09:10:27;;;;;;;5.15;1.95;;;;;;;27.78;30.09;99600.16;4946422;28;106087;-64
2021/07/30 09:13:19;;;;;;;9.27;2.22;;;;;;;27.98;29.99;99594.34;4947530;28;106102;-65
2021/07/30 09:16:00;;;;;;;4.80;1.80;;;;;;;28.35;29.86;99592.59;4946367;28;105999;-64
2021/07/30 09:18:27;;;;;;;4.65;1.92;;;;;;;28.55;29.14;99587.81;4946275;28;106818;-65
2021/07/30 09:20:53;;;;;;;5.15;2.38;;;;;;;28.48;28.89;99593.69;4946650;28;106176;-66
2021/07/30 09:23:19;;;;;;;5.57;1.98;;;;;;;28.61;29.09;99583.84;4949324;28;106011;-65
2021/07/30 09:25:44;;;;;;;3.78;2.05;;;;;;;28.94;29.11;99572.75;4950543;28;106826;-66
2021/07/30 09:28:10;;;;;;;4.60;2.00;;;;;;;29.18;28.46;99577.97;4949935;28;105948;-66
2021/07/30 09:30:35;;;;;;;4.80;2.03;;;;;;;29.33;28.38;99565.03;4934969;28;106065;-66
2021/07/30 09:33:01;;;;;;;3.13;2.13;;;;;;;29.37;28.32;99569.59;4931386;28;106011;-66
2021/07/30 09:35:26;;;;;;;3.38;1.95;;;;;;;29.52;27.88;99570.34;4936723;28;106244;-66
2021/07/30 09:38:15;;;;;;;4.22;2.15;;;;;;;29.49;27.88;99571.78;4946206;28;106641;-66
2021/07/30 09:40:41;;;;;;;4.00;1.98;;;;;;;29.35;27.76;99554.59;4950591;28;106051;-66
2021/07/30 09:43:23;;;;;;;5.25;1.92;;;;;;;29.25;28.05;99555.63;4951739;28;106190;-66
2021/07/30 09:45:49;;;;;;;5.03;1.95;;;;;;;29.16;27.85;99552.78;4951229;28;106141;-65
2021/07/30 09:48:14;;;;;;;5.10;2.20;;;;;;;29.10;28.24;99553.22;4950216;28;106554;-66
2021/07/30 09:50:40;;;;;;;3.67;2.15;;;;;;;29.21;27.71;99549.94;4948331;28;116085;-66
2021/07/30 09:53:06;;;;;;;6.53;2.10;;;;;;;29.12;28.10;99537.28;4949383;28;106480;-68
2021/07/30 09:55:37;;;;;;;6.03;2.30;;;;;;;29.36;27.90;99545.22;4948518;28;106320;-64
2021/07/30 09:58:04;;;;;;;5.65;2.10;;;;;;;29.42;27.88;99543.19;4948305;28;106106;-66
2021/07/30 10:00:31;;;;;;;3.92;2.20;;;;;;;29.67;27.95;99545.25;4948463;28;106422;-64
2021/07/30 10:03:02;;;;;;;4.45;2.05;;;;;;;30.29;27.64;99540.88;4948801;28;106440;-65
2021/07/30 10:05:29;;;;;;;4.20;2.17;;;;;;;30.73;26.72;99532.78;4949659;28;106313;-64
2021/07/30 10:07:55;;;;;;;5.95;2.20;;;;;;;31.08;26.58;99532.78;4950311;28;106163;-65
2021/07/30 10:10:25;;;;;;;4.80;1.70;;;;;;;31.36;26.24;99525.00;4949262;28;106510;-67
2021/07/30 10:13:00;;;;;;;5.35;2.33;;;;;;;31.89;25.47;99525.72;4951213;28;106044;-66
2021/07/30 10:15:26;;;;;;;3.42;2.13;;;;;;;31.85;24.99;99523.94;4951000;28;105684;-66
2021/07/30 10:17:53;;;;;;;5.30;2.00;;;;;;;31.75;24.87;99508.59;4950654;28;105926;-66
2021/07/30 10:20:20;;;;;;;4.93;2.00;;;;;;;31.87;25.12;99505.94;4950682;28;106108;-67
2021/07/30 10:23:03;;;;;;;6.18;2.28;;;;;;;32.12;25.23;99514.41;4951660;28;106378;-66
2021/07/30 10:25:34;;;;;;;5.47;2.00;;;;;;;32.38;24.66;99508.00;4950539;28;105838;-68
2021/07/30 10:28:05;;;;;;;4.65;2.75;;;;;;;32.43;24.36;99509.75;4950578;28;105848;-69
2021/07/30 10:30:54;;;;;;;6.00;2.33;;;;;;;32.31;24.51;99505.75;4950106;28;105988;-67
2021/07/30 10:33:31;;;;;;;3.67;2.35;;;;;;;32.53;24.32;99501.09;4951067;28;105994;-67
2021/07/30 10:36:01;;;;;;;2.72;1.85;;;;;;;32.58;24.55;99484.34;4950193;28;106024;-66
2021/07/30 10:38:27;;;;;;;7.50;2.58;;;;;;;32.44;24.00;99489.31;4949958;28;106033;-67
2021/07/30 10:40:59;;;;;;;5.38;2.10;;;;;;;31.88;24.97;99490.25;4949780;28;106172;-66
2021/07/30 10:43:28;;;;;;;3.80;2.28;;;;;;;31.79;25.08;99486.72;4950618;28;105983;-67
2021/07/30 10:46:13;;;;;;;4.88;2.55;;;;;;;31.69;25.05;99488.69;4950074;28;106695;-66
2021/07/30 10:48:39;;;;;;;3.97;2.30;;;;;;;31.86;25.05;99475.97;4948043;28;120582;-66
2021/07/30 10:54:02;;;;;;;3.40;2.38;;;;;;;32.19;24.25;99478.13;4950987;28;106015;-67
2021/07/30 10:56:30;;;;;;;8.10;2.35;;;;;;;32.39;24.35;99473.78;4950066;28;106169;-68
2021/07/30 10:58:56;;;;;;;7.05;2.35;;;;;;;32.26;24.54;99481.16;4950381;28;106036;-67
2021/07/30 11:01:24;;;;;;;4.68;2.75;;;;;;;32.36;24.58;99467.00;4949898;28;106108;-64
2021/07/30 11:03:50;;;;;;;5.25;2.33;;;;;;;32.66;24.63;99463.38;4950767;28;105892;-63
2021/07/30 11:06:22;;;;;;;6.47;3.15;;;;;;;32.80;24.31;99468.66;4950417;28;105718;-66
2021/07/30 11:11:35;;;;;;;4.72;2.30;;;;;;;33.17;24.12;99455.00;4949505;28;106158;-66
2021/07/30 11:14:00;;;;;;;3.47;2.30;;;;;;;33.66;23.59;99463.41;4950770;28;106305;-65
2021/07/30 11:16:26;;;;;;;4.10;2.20;;;;;;;33.88;23.00;99453.09;4948998;28;106214;-66
2021/07/30 11:18:51;;;;;;;3.40;2.25;;;;;;;33.29;22.77;99452.28;4949729;28;106758;-68
2021/07/30 11:21:16;;;;;;;4.13;2.20;;;;;;;32.49;23.59;99448.59;4949574;28;105860;-67
2021/07/30 11:23:45;;;;;;;6.00;2.13;;;;;;;32.27;24.34;99462.69;4949571;28;105842;-66
2021/07/30 11:26:10;;;;;;;7.97;2.40;;;;;;;32.48;24.11;99446.16;4949669;28;106123;-66
2021/07/30 11:28:35;;;;;;;5.05;2.22;;;;;;;32.35;24.21;99446.06;4949131;28;108562;-66
2021/07/30 11:31:01;;;;;;;6.55;2.30;;;;;;;32.59;23.96;99443.78;4949266;28;106297;-67
2021/07/30 11:33:27;;;;;;;4.70;2.40;;;;;;;32.61;24.26;99447.84;4950004;28;106470;-67
2021/07/30 11:35:52;;;;;;;4.25;2.25;;;;;;;32.51;24.16;99439.97;4948942;28;106665;-66
2021/07/30 11:38:17;;;;;;;4.30;2.47;;;;;;;32.65;24.31;99442.47;4948556;28;128966;-66
2021/07/30 11:40:43;;;;;;;3.83;2.50;;;;;;;32.47;23.92;99455.59;4948537;28;118837;-66
2021/07/30 11:43:08;;;;;;;3.55;2.47;;;;;;;32.12;24.10;99450.25;4949807;28;106270;-66
2021/07/30 11:45:34;;;;;;;3.42;2.40;;;;;;;31.93;24.38;99436.91;4948404;28;106062;-66
2021/07/30 11:48:00;;;;;;;6.80;2.70;;;;;;;31.84;24.73;99431.47;4948606;28;106251;-67
2021/07/30 11:50:27;;;;;;;5.03;2.92;;;;;;;31.70;24.74;99432.50;4949266;28;105854;-65
2021/07/30 11:53:03;;;;;;;7.63;2.80;;;;;;;31.46;25.31;99429.50;4949736;28;106099;-66
2021/07/30 11:55:28;;;;;;;3.88;2.60;;;;;;;31.56;25.09;99432.69;4947963;28;106324;-66
2021/07/30 11:57:54;;;;;;;5.35;2.47;;;;;;;31.67;25.06;99430.41;4948378;28;124201;-66
2021/07/30 12:00:24;;;;;;;4.07;2.65;;;;;;;31.73;24.89;99425.53;4947274;28;106052;-66
2021/07/30 13:53:16;;;;;;;4.82;2.58;;;;;;;30.89;27.16;99313.94;5022808;28;106229;-65
2021/07/30 13:55:42;;;;;;;4.05;2.67;;;;;;;30.86;27.29;99314.59;5014286;27;106207;-66
2021/07/30 13:58:07;;;;;;;5.05;2.95;;;;;;;30.78;27.45;99320.13;5004004;28;106374;-67
2021/07/30 14:00:33;;;;;;;6.30;2.60;;;;;;;30.77;27.50;99310.25;5003209;28;122872;-68
2021/07/30 14:02:58;;;;;;;9.23;2.88;;;;;;;30.56;27.61;99313.69;5003425;28;106089;-67
2021/07/30 14:05:23;;;;;;;5.28;2.70;;;;;;;30.40;27.71;99305.13;5004264;28;106062;-67
2021/07/30 14:07:49;;;;;;;6.72;3.72;;;;;;;30.41;28.04;99303.97;5002787;28;106813;-67
2021/07/30 14:10:16;;;;;;;4.97;2.90;;;;;;;30.55;27.49;99306.56;5003366;28;111225;-67
2021/07/30 14:12:42;;;;;;;7.45;2.97;;;;;;;30.69;27.28;99309.94;5003509;28;106117;-66
2021/07/30 14:15:09;;;;;;;7.43;3.05;;;;;;;30.53;27.38;99301.41;5003864;28;106380;-67
2021/07/30 14:17:35;;;;;;;4.28;2.80;;;;;;;30.19;27.77;99303.00;5002978;28;106208;-67
2021/07/30 14:20:03;;;;;;;7.55;3.65;;;;;;;29.82;28.33;99309.91;5003298;28;106668;-66
2021/07/30 14:22:28;;;;;;;5.22;2.95;;;;;;;29.49;28.73;99307.59;5003237;28;106226;-68
2021/07/30 14:24:53;;;;;;;5.18;2.80;;;;;;;29.25;28.85;99306.03;5003475;28;106040;-67
2021/07/30 14:27:19;;;;;;;5.90;2.83;;;;;;;29.23;28.92;99300.03;5002954;28;117135;-67
2021/07/30 14:29:44;;;;;;;7.68;4.43;;;;;;;29.32;29.39;99303.66;5002743;28;114868;-68
2021/07/30 14:32:09;;;;;;;6.72;2.88;;;;;;;29.48;28.72;99304.03;5002929;28;106130;-67
2021/07/30 14:34:35;;;;;;;6.78;4.20;;;;;;;29.40;28.36;99296.56;5003842;28;106038;-68
2021/07/30 14:37:00;;;;;;;5.65;2.90;;;;;;;29.41;29.10;99300.16;5003839;28;105961;-66
2021/07/30 14:39:27;;;;;;;6.55;3.33;;;;;;;29.35;28.79;99297.53;5002905;28;106158;-68
2021/07/30 14:41:52;;;;;;;7.32;4.03;;;;;;;29.30;29.01;99294.13;5002761;28;106427;-67
2021/07/30 14:44:20;;;;;;;8.30;5.47;;;;;;;29.19;28.88;99280.66;5003747;28;106501;-68
2021/07/30 14:46:46;;;;;;;8.55;5.25;;;;;;;29.25;29.07;99277.81;5003351;28;106314;-68
2021/07/30 14:49:14;;;;;;;7.53;4.32;;;;;;;29.27;29.13;99289.28;5002766;28;106278;-67
2021/07/30 14:51:40;;;;;;;8.25;4.47;;;;;;;29.23;29.46;99289.06;5001623;28;106631;-66
2021/07/30 14:54:05;;;;;;;6.35;3.92;;;;;;;29.19;28.98;99283.41;5003808;28;106085;-66
2021/07/30 14:56:33;;;;;;;7.57;4.40;;;;;;;29.21;29.33;99275.69;5002947;28;106013;-66
2021/07/30 14:58:59;;;;;;;6.07;3.90;;;;;;;29.35;29.50;99274.78;5002937;28;106884;-66
2021/07/30 15:01:24;;;;;;;5.57;3.42;;;;;;;29.46;29.23;99275.31;5002463;28;106110;-66
2021/07/30 15:03:49;;;;;;;4.57;3.35;;;;;;;29.53;29.28;99270.16;4993640;28;105890;-66
2021/07/30 15:06:15;;;;;;;4.47;3.08;;;;;;;29.36;28.97;99271.72;4989582;28;106207;-66
2021/07/30 15:08:40;;;;;;;3.95;2.95;;;;;;;29.13;29.30;99273.72;4989493;28;105937;-68
2021/07/30 15:11:08;;;;;;;7.70;3.17;;;;;;;28.97;29.76;99267.03;4988961;28;106392;-68
2021/07/30 15:13:33;;;;;;;5.68;3.00;;;;;;;28.93;29.91;99266.06;4990008;28;106017;-67
2021/07/30 15:16:06;;;;;;;5.80;2.55;;;;;;;28.90;30.07;99259.28;4988884;28;106167;-67
2021/07/30 15:18:32;;;;;;;4.68;3.03;;;;;;;28.94;30.21;99254.78;4989326;28;106772;-66
2021/07/30 15:20:59;;;;;;;4.10;2.92;;;;;;;28.84;29.61;99255.03;4989031;28;106876;-67
2021/07/30 15:23:27;;;;;;;7.53;3.15;;;;;;;28.78;30.13;99256.31;4989962;28;106384;-66
2021/07/30 15:25:53;;;;;;;7.72;3.20;;;;;;;28.78;30.17;99250.84;4989558;28;106321;-67
2021/07/30 15:28:19;;;;;;;5.35;2.92;;;;;;;28.91;30.18;99241.72;4988641;28;106065;-66
2021/07/30 15:30:44;;;;;;;5.40;3.15;;;;;;;29.08;30.02;99246.44;4972872;28;106043;-67
2021/07/30 15:33:09;;;;;;;7.85;3.10;;;;;;;29.05;29.51;99260.78;4973860;28;106102;-67
2021/07/30 15:35:34;;;;;;;5.07;3.40;;;;;;;28.95;29.61;99255.56;4970770;28;105963;-67
2021/07/30 15:38:00;;;;;;;9.05;3.22;;;;;;;28.89;30.05;99248.63;4970419;28;106956;-67
2021/07/30 15:40:25;;;;;;;4.43;3.20;;;;;;;28.80;29.86;99248.56;4970717;28;105974;-66
2021/07/30 15:42:51;;;;;;;5.80;2.60;;;;;;;28.74;30.12;99247.09;4982238;28;105946;-66
2021/07/30 15:45:16;;;;;;;3.97;2.97;;;;;;;28.77;30.31;99250.00;4990475;28;105968;-65
2021/07/30 15:47:41;;;;;;;5.43;2.70;;;;;;;28.87;29.72;99251.69;4990164;28;105991;-65
2021/07/30 15:50:07;;;;;;;4.63;2.70;;;;;;;28.87;29.66;99254.44;4990330;28;107603;-66
2021/07/30 15:52:33;;;;;;;5.10;3.08;;;;;;;28.81;29.16;99245.50;4990336;28;106117;-68
2021/07/30 15:54:58;;;;;;;4.22;2.70;;;;;;;28.73;29.31;99245.47;4990375;28;106182;-70
2021/07/30 15:57:23;;;;;;;6.10;2.95;;;;;;;28.69;29.69;99248.84;4990360;28;106164;-70
2021/07/30 15:59:49;;;;;;;5.15;2.72;;;;;;;28.75;29.73;99246.00;4989583;28;106001;-72
2021/07/30 16:02:15;;;;;;;5.30;2.60;;;;;;;28.81;30.04;99241.97;4990793;28;105871;-68
2021/07/30 16:04:41;;;;;;;7.45;2.90;;;;;;;28.84;29.71;99235.84;4990019;28;105999;-68
2021/07/30 16:07:06;;;;;;;4.57;2.88;;;;;;;28.91;29.52;99233.50;4989824;28;106115;-70
2021/07/30 16:09:32;;;;;;;5.47;3.05;;;;;;;28.79;29.89;99236.00;4989510;28;106056;-70
2021/07/30 16:11:58;;;;;;;8.70;3.58;;;;;;;28.70;30.01;99235.97;4990534;28;106225;-73
2021/07/30 16:14:24;;;;;;;5.68;3.45;;;;;;;28.66;30.39;99233.03;4989251;28;106142;-71
2021/07/30 16:16:49;;;;;;;3.83;2.42;;;;;;;28.61;30.29;99226.84;4989146;28;106119;-71
2021/07/30 16:19:14;;;;;;;5.90;3.50;;;;;;;28.62;30.59;99223.78;4989810;28;106322;-70
2021/07/30 16:21:40;;;;;;;5.63;3.00;;;;;;;28.65;30.38;99228.69;4990508;28;105893;-70
2021/07/30 16:24:05;;;;;;;5.53;2.83;;;;;;;28.64;30.23;99218.84;4989872;28;106183;-69
2021/07/30 16:26:31;;;;;;;7.80;3.20;;;;;;;28.65;30.53;99219.66;4988964;28;106112;-68
2021/07/30 16:28:56;;;;;;;5.70;3.30;;;;;;;28.64;30.57;99213.38;4989369;28;105881;-69
2021/07/30 16:31:22;;;;;;;7.45;3.15;;;;;;;28.66;30.23;99216.59;4989951;28;105968;-67
2021/07/30 16:33:48;;;;;;;7.13;3.28;;;;;;;28.78;30.02;99223.44;4989469;28;106161;-66
2021/07/30 16:36:14;;;;;;;3.50;2.80;;;;;;;28.70;30.43;99217.59;4988626;28;106001;-63
2021/07/30 16:38:40;;;;;;;7.43;2.90;;;;;;;28.63;30.12;99219.97;4989138;28;106014;-66
2021/07/30 16:41:10;;;;;;;11.25;3.90;;;;;;;28.44;30.80;99222.09;4989746;28;106089;-66
2021/07/30 16:43:36;;;;;;;6.05;3.13;;;;;;;28.38;30.71;99218.69;4989406;28;106000;-64
2021/07/30 16:46:01;;;;;;;5.40;3.40;;;;;;;28.34;30.79;99214.94;4989123;28;105977;-65
2021/07/30 16:48:26;;;;;;;4.70;3.30;;;;;;;28.28;30.71;99216.19;4989312;28;106379;-65
2021/07/30 16:50:52;;;;;;;6.05;3.00;;;;;;;28.19;31.11;99219.69;4989840;28;106132;-64
2021/07/30 16:53:19;;;;;;;7.25;3.08;;;;;;;28.08;30.76;99212.03;4989098;28;106320;-64
2021/07/30 16:55:45;;;;;;;6.55;2.85;;;;;;;27.95;31.54;99206.25;4988847;28;106439;-64
2021/07/30 16:58:10;;;;;;;5.93;2.92;;;;;;;27.92;31.42;99206.88;4988976;28;106074;-64
2021/07/30 17:00:35;;;;;;;6.13;3.10;;;;;;;27.82;31.39;99209.88;4990278;28;106012;-63
2021/07/30 17:03:02;;;;;;;7.35;3.10;;;;;;;27.77;31.33;99208.06;4989376;28;106368;-63
2021/07/30 17:05:27;;;;;;;6.70;3.40;;;;;;;27.80;31.55;99209.38;4989050;28;106617;-64
2021/07/30 17:07:54;;;;;;;6.55;2.90;;;;;;;27.72;31.75;99204.63;4988600;28;106446;-63
2021/07/30 17:10:19;;;;;;;4.10;2.75;;;;;;;27.66;31.72;99202.00;4989903;28;105846;-64
2021/07/30 17:12:45;;;;;;;7.43;3.25;;;;;;;27.65;31.73;99211.34;4989140;28;106157;-63
2021/07/30 17:15:13;;;;;;;3.80;2.75;;;;;;;27.56;31.79;99206.91;4989125;28;106768;-63
2021/07/30 17:17:38;;;;;;;5.20;3.10;;;;;;;27.48;31.97;99201.03;4988563;28;105996;-63
2021/07/30 17:20:04;;;;;;;7.85;3.08;;;;;;;27.41;32.18;99199.88;4989852;28;105910;-63
2021/07/30 17:22:30;;;;;;;7.15;3.33;;;;;;;27.37;32.36;99205.13;4989142;28;106216;-63
2021/07/30 17:24:55;;;;;;;8.38;3.55;;;;;;;27.34;32.37;99206.50;4988843;28;106297;-67
2021/07/30 17:27:21;;;;;;;4.65;2.67;;;;;;;27.37;32.42;99202.38;4988325;28;106062;-63
2021/07/30 17:29:46;;;;;;;4.63;2.83;;;;;;;27.40;32.42;99203.69;4989011;28;106052;-64
2021/07/30 17:32:11;;;;;;;8.40;3.40;;;;;;;27.40;32.17;99203.69;4989110;28;106375;-64
2021/07/30 17:34:37;;;;;;;6.15;3.28;;;;;;;27.35;32.68;99202.66;4988564;28;106150;-64
2021/07/30 17:37:03;;;;;;;6.72;3.83;;;;;;;27.38;32.78;99211.41;4988801;28;106242;-64
2021/07/30 17:39:29;;;;;;;5.95;2.85;;;;;;;27.35;32.84;99208.13;4989302;28;106137;-64
2021/07/30 17:41:56;;;;;;;7.03;2.85;;;;;;;27.30;33.09;99212.91;4988823;28;105822;-64
2021/07/30 17:44:21;;;;;;;7.45;3.05;;;;;;;27.23;33.28;99218.78;4988357;28;106992;-66
2021/07/30 17:46:46;;;;;;;6.65;3.30;;;;;;;27.24;33.75;99214.13;4988474;28;106418;-64
2021/07/30 17:49:12;;;;;;;5.30;3.08;;;;;;;27.28;33.81;99224.13;4988247;28;106415;-65
2021/07/30 17:51:37;;;;;;;5.45;3.30;;;;;;;27.31;33.74;99217.25;4988104;28;106317;-67
2021/07/30 17:54:02;;;;;;;6.50;2.88;;;;;;;27.32;34.19;99225.13;4988177;28;105893;-63